1993 KONITA (1993120S10075)


On this page: IBTrACS data - Map and Plots - Positions - Intensities - Original source data

Summary

Start Apr 29
End May 7
Basin SI
LMI 90 kt
Sources jtwc_sh
reunion
neumann
In WMO? Yes
Previous storm 1993 MISSING (WP)
Previous in basin 1993 MONTY (SI)
Concurrent storms 1993 KONITA (SI)
Next in basin Missing
Next storm 1993 ADEL (SP)

top of page IBTrACS Data: File Access

top of page HURSAT Data: File Access

Image of storm

top of page Plots:

Map of storm track will not appear if FTP is down
Time series of cyclone Maximum Sustained Wind will not appear if FTP is down
Time series of cyclone Minimum Central Pressure will not appear if FTP is down

top of page Track Data:Position

jtwc_sh reunion neumann
Date Lat Lon Lat Lon Lat Lon
1993-04-29 18:00:00 -10.3 74.5 -10.3 74.5
1993-04-30 00:00:00 -10.0 73.7 -10.0 73.7
1993-04-30 06:00:00 -9.7 73.0 -9.7 73.0
1993-04-30 12:00:00 -9.4 72.4 -9.4 72.4
1993-04-30 18:00:00 -9.0 71.8 -9.0 71.8
1993-05-01 00:00:00 -8.6 71.3 -8.6 71.3
1993-05-01 06:00:00 -8.1 70.8 -8.1 70.8
1993-05-01 12:00:00 -7.5 70.6 -7.5 70.6
1993-05-01 18:00:00 -7.0 70.6 -7.0 70.6
1993-05-02 00:00:00 -6.6 71.1 -6.6 71.1
1993-05-02 06:00:00 -6.9 71.6 -6.9 71.6
1993-05-02 12:00:00 -7.4 71.4 -7.5 72.0 -7.4 71.4
1993-05-02 18:00:00 -7.7 71.0 -7.4 71.9 -7.7 71.0
1993-05-03 00:00:00 -7.9 70.6 -7.4 71.7 -7.9 70.6
1993-05-03 06:00:00 -8.2 70.1 -8.1 70.8 -8.2 70.1
1993-05-03 12:00:00 -8.5 69.6 -9.3 69.5 -8.5 69.6
1993-05-03 18:00:00 -8.8 69.1 -9.3 69.0 -8.8 69.1
1993-05-04 00:00:00 -9.2 68.6 -9.3 68.6 -9.2 68.6
1993-05-04 06:00:00 -9.6 68.3 -9.7 68.5 -9.6 68.3
1993-05-04 12:00:00 -10.0 68.2 -10.4 68.6 -10.0 68.2
1993-05-04 18:00:00 -10.4 68.2 -10.5 68.5 -10.4 68.2
1993-05-05 00:00:00 -10.7 68.3 -10.6 68.4 -10.7 68.3
1993-05-05 06:00:00 -11.0 68.3 -11.2 68.6 -11.0 68.3
1993-05-05 12:00:00 -11.2 68.4 -11.6 68.8 -11.2 68.4
1993-05-05 18:00:00 -11.3 68.5 -11.7 68.9 -11.3 68.5
jtwc_sh reunion neumann
1993-05-06 00:00:00 -11.2 68.6 -11.6 69.0 -11.2 68.6
1993-05-06 06:00:00 -11.0 68.7 -11.2 69.0 -11.0 68.7
1993-05-06 12:00:00 -10.7 68.9 -10.5 69.1 -10.7 68.9
1993-05-06 18:00:00 -10.5 68.9 -10.5 68.9 -10.5 68.9
1993-05-07 00:00:00 -10.4 68.7 -10.6 68.9 -10.4 68.7
1993-05-07 06:00:00 -10.5 68.5 -10.5 68.5
1993-05-07 12:00:00 -10.7 68.3 -10.7 68.3

top of pageTrack Data:Intensity

jtwc_sh reunion neumann
Date Wind Pres Wind Pres Wind Pres
1993-04-29 18:00:00 15. 15.
1993-04-30 00:00:00 15. 15.
1993-04-30 06:00:00 15. 15.
1993-04-30 12:00:00 20. 20.
1993-04-30 18:00:00 20. 20.
1993-05-01 00:00:00 20. 20.
1993-05-01 06:00:00 25. 25.
1993-05-01 12:00:00 25. 25.
1993-05-01 18:00:00 25. 25.
1993-05-02 00:00:00 30. 30.
1993-05-02 06:00:00 35. 35.
1993-05-02 12:00:00 45. 23. 1000. 45.
1993-05-02 18:00:00 50. 27. 998. 50.
1993-05-03 00:00:00 50. 30. 996. 50.
1993-05-03 06:00:00 55. 30. 996. 55.
1993-05-03 12:00:00 55. 30. 995. 55.
1993-05-03 18:00:00 60. 37. 990. 60.
1993-05-04 00:00:00 65. 37. 990. 65.
1993-05-04 06:00:00 70. 43. 984. 70.
1993-05-04 12:00:00 75. 53. 975. 75.
1993-05-04 18:00:00 75. 63. 966. 75.
1993-05-05 00:00:00 85. 70. 955. 85.
1993-05-05 06:00:00 90. 70. 955. 90.
1993-05-05 12:00:00 85. 63. 965. 85.
1993-05-05 18:00:00 80. 53. 975. 80.
jtwc_sh reunion neumann
1993-05-06 00:00:00 70. 43. 985. 70.
1993-05-06 06:00:00 55. 37. 990. 55.
1993-05-06 12:00:00 45. 33. 992. 45.
1993-05-06 18:00:00 45. 30. 996. 45.
1993-05-07 00:00:00 35. 23. 1000. 35.
1993-05-07 06:00:00 35. 35.
1993-05-07 12:00:00 30. 30.

top of page Links to source data

Source Source file Format
jtwc_sh bsh261993.txt ATCF
reunion WMO-Best-Tracks.txt:Line=16146:konita WMO (old format)
neumann tracks.sh:Storm=981:KONITA:BSH261993:JTWC HURDAT